Time;durP1;ratioP1;P1;durP2;ratioP2;P2;SDS_P1;SDS_P2;PMS_P1;PMS_P2;Temp;Humidity;BMP_temperature;BMP_pressure;BME280_temperature;BME280_humidity;BME280_pressure;Samples;Min_cycle;Max_cycle;Signal;HPM_P1;HPM_P2
2021/04/04 00:02:09;;;;;;;20.30;3.60;;;12.10;65.10;;;;;;5047728;28;20464;-81
2021/04/04 00:04:36;;;;;;;18.65;3.25;;;12.10;65.20;;;;;;5060935;28;20421;-82
2021/04/04 00:07:02;;;;;;;19.55;3.53;;;12.10;65.50;;;;;;5045496;28;20420;-80
2021/04/04 00:09:28;;;;;;;19.13;3.20;;;12.00;66.50;;;;;;5048786;28;20436;-80
2021/04/04 00:11:55;;;;;;;24.07;3.67;;;12.00;67.50;;;;;;5064805;28;20427;-80
2021/04/04 00:14:21;;;;;;;19.73;3.05;;;12.00;68.00;;;;;;5058436;28;20443;-82
2021/04/04 00:16:49;;;;;;;19.90;3.67;;;12.00;68.00;;;;;;5044844;28;21783;-83
2021/04/04 00:19:15;;;;;;;16.85;3.00;;;12.00;68.20;;;;;;5047118;28;20424;-79
2021/04/04 00:21:41;;;;;;;17.45;2.75;;;12.00;68.00;;;;;;5060022;28;20824;-78
2021/04/04 00:24:09;;;;;;;15.77;2.90;;;12.00;67.20;;;;;;5058219;28;20431;-80
2021/04/04 00:26:36;;;;;;;18.00;3.05;;;11.90;67.50;;;;;;5046544;28;20419;-80
2021/04/04 00:29:04;;;;;;;15.77;3.22;;;11.90;68.10;;;;;;5062883;28;20472;-81
2021/04/04 00:31:31;;;;;;;17.33;3.40;;;11.90;68.60;;;;;;5064266;28;20504;-80
2021/04/04 00:33:58;;;;;;;18.33;3.30;;;11.90;68.70;;;;;;5059109;28;20451;-81
2021/04/04 00:36:25;;;;;;;15.82;3.13;;;11.90;69.00;;;;;;5064570;28;20431;-80
2021/04/04 00:38:52;;;;;;;12.68;2.67;;;11.90;69.20;;;;;;5061222;28;20485;-80
2021/04/04 00:41:19;;;;;;;18.87;3.27;;;11.90;69.10;;;;;;5060688;28;20917;-81
2021/04/04 00:43:46;;;;;;;22.48;3.60;;;11.90;69.40;;;;;;5045237;28;20504;-80
2021/04/04 00:46:12;;;;;;;15.50;3.10;;;11.90;69.90;;;;;;5045048;28;20913;-80
2021/04/04 00:48:39;;;;;;;17.13;2.92;;;11.90;70.70;;;;;;5044888;28;20447;-82
2021/04/04 00:51:06;;;;;;;17.38;3.00;;;11.90;70.70;;;;;;5057715;28;20562;-81
2021/04/04 00:53:33;;;;;;;19.63;3.10;;;11.80;70.30;;;;;;5063050;28;20432;-82
2021/04/04 00:56:00;;;;;;;19.15;3.35;;;11.80;69.80;;;;;;5046268;28;20465;-81
2021/04/04 00:58:26;;;;;;;18.65;3.40;;;11.80;69.20;;;;;;5047993;28;20427;-82
2021/04/04 01:00:53;;;;;;;14.70;2.70;;;11.70;68.90;;;;;;5062852;28;20455;-81
2021/04/04 01:03:19;;;;;;;17.50;3.00;;;11.70;67.40;;;;;;5043651;28;20497;-81
2021/04/04 01:05:49;;;;;;;18.35;2.67;;;11.70;66.80;;;;;;5046968;28;20445;-81
2021/04/04 01:08:16;;;;;;;15.65;2.85;;;11.70;66.90;;;;;;5047961;28;21249;-81
2021/04/04 01:10:45;;;;;;;16.90;2.90;;;11.70;66.50;;;;;;5047158;28;20514;-81
2021/04/04 01:13:19;;;;;;;16.47;2.70;;;11.70;66.50;;;;;;5048762;28;20416;-80
2021/04/04 01:15:49;;;;;;;14.60;2.65;;;11.70;66.50;;;;;;5046615;28;20427;-83
2021/04/04 01:18:22;;;;;;;14.18;2.83;;;11.70;66.20;;;;;;5064450;28;20511;-81
2021/04/04 01:20:52;;;;;;;17.63;3.15;;;11.60;66.30;;;;;;5048790;28;20436;-80
2021/04/04 01:23:38;;;;;;;19.20;2.97;;;11.60;66.50;;;;;;5058103;28;20758;-82
2021/04/04 01:26:11;;;;;;;15.88;2.80;;;11.70;66.60;;;;;;5047402;28;21122;-80
2021/04/04 01:28:41;;;;;;;17.35;3.10;;;11.60;66.40;;;;;;5061554;28;20477;-82
2021/04/04 01:31:09;;;;;;;16.10;2.90;;;11.60;66.50;;;;;;5045315;28;20423;-80
2021/04/04 01:33:37;;;;;;;15.63;2.67;;;11.60;66.50;;;;;;5061776;28;20481;-81
2021/04/04 01:36:07;;;;;;;15.63;2.80;;;11.60;66.40;;;;;;5042290;28;20423;-81
2021/04/04 01:38:40;;;;;;;18.88;2.90;;;11.60;66.50;;;;;;5049412;28;20427;-82
2021/04/04 01:41:13;;;;;;;19.17;2.93;;;11.60;66.70;;;;;;5062930;28;20444;-80
2021/04/04 01:43:44;;;;;;;18.37;2.93;;;11.50;66.90;;;;;;5059964;28;20427;-82
2021/04/04 01:46:11;;;;;;;15.93;3.10;;;11.50;67.30;;;;;;5060515;28;20437;-83
2021/04/04 01:48:40;;;;;;;16.77;2.80;;;11.50;67.50;;;;;;5045763;28;20420;-80
2021/04/04 01:51:08;;;;;;;14.68;3.00;;;11.50;67.60;;;;;;5060628;28;20977;-80
2021/04/04 01:53:36;;;;;;;16.50;2.92;;;11.60;67.50;;;;;;5062020;28;20415;-81
2021/04/04 01:56:03;;;;;;;18.70;3.13;;;11.60;67.60;;;;;;5063747;28;20516;-82
2021/04/04 01:58:31;;;;;;;17.00;2.92;;;11.60;67.90;;;;;;5048041;28;20427;-81
2021/04/04 02:00:59;;;;;;;17.15;2.80;;;11.60;68.00;;;;;;5052326;28;22034;-81
2021/04/04 02:03:29;;;;;;;15.02;2.63;;;11.60;68.00;;;;;;5063731;28;20413;-82
2021/04/04 02:05:57;;;;;;;17.60;2.83;;;11.60;67.90;;;;;;5051605;28;20423;-80
2021/04/04 02:08:24;;;;;;;17.83;3.03;;;11.60;68.10;;;;;;5050356;28;20817;-81
2021/04/04 02:10:51;;;;;;;15.43;2.87;;;11.60;68.00;;;;;;5066109;28;20437;-81
2021/04/04 02:13:19;;;;;;;18.38;3.30;;;11.60;67.70;;;;;;5061723;28;22497;-81
2021/04/04 02:15:46;;;;;;;14.32;2.83;;;11.60;67.90;;;;;;5048198;28;20428;-83
2021/04/04 02:18:15;;;;;;;14.15;2.50;;;11.60;67.80;;;;;;5068434;28;20909;-81
2021/04/04 02:20:43;;;;;;;15.30;2.85;;;11.60;67.90;;;;;;5047146;28;20506;-81
2021/04/04 02:23:12;;;;;;;12.45;2.70;;;11.50;67.90;;;;;;5063477;28;20411;-82
2021/04/04 02:25:39;;;;;;;17.40;2.70;;;11.50;67.70;;;;;;5048935;28;20416;-84
2021/04/04 02:28:06;;;;;;;14.70;2.58;;;11.50;67.80;;;;;;5065632;28;20419;-83
2021/04/04 02:30:33;;;;;;;15.43;2.50;;;11.50;67.90;;;;;;5048141;28;20985;-81
2021/04/04 02:33:02;;;;;;;13.87;2.57;;;11.50;67.70;;;;;;5046059;28;20927;-82
2021/04/04 02:35:32;;;;;;;17.83;2.58;;;11.50;67.70;;;;;;5063910;28;20435;-83
2021/04/04 02:38:02;;;;;;;14.48;2.50;;;11.40;68.60;;;;;;5059181;28;20432;-83
2021/04/04 02:40:31;;;;;;;14.45;2.60;;;11.40;67.90;;;;;;5048480;28;20423;-83
2021/04/04 02:42:59;;;;;;;16.20;3.10;;;11.40;68.10;;;;;;5049858;28;20419;-80
2021/04/04 02:45:28;;;;;;;15.30;2.60;;;11.40;68.00;;;;;;5064095;28;20488;-82
2021/04/04 02:48:02;;;;;;;13.55;2.70;;;11.40;68.80;;;;;;5064670;28;20519;-82
2021/04/04 02:50:30;;;;;;;13.73;2.70;;;11.40;68.20;;;;;;5050417;28;20477;-81
2021/04/04 02:52:59;;;;;;;11.80;2.17;;;11.40;68.00;;;;;;5049876;28;20427;-79
2021/04/04 02:55:28;;;;;;;12.80;2.45;;;11.30;67.80;;;;;;5048247;28;20416;-81
2021/04/04 02:57:55;;;;;;;13.93;2.38;;;11.30;68.00;;;;;;5060832;28;20421;-81
2021/04/04 03:00:23;;;;;;;12.68;2.47;;;11.30;68.30;;;;;;5068421;28;20424;-80
2021/04/04 03:02:51;;;;;;;11.55;2.90;;;11.30;68.50;;;;;;5067922;28;20446;-81
2021/04/04 03:05:20;;;;;;;15.98;2.45;;;11.20;68.50;;;;;;5048964;28;20416;-80
2021/04/04 03:07:49;;;;;;;16.73;3.20;;;11.20;68.90;;;;;;5051815;28;20437;-81
2021/04/04 03:10:16;;;;;;;20.48;2.83;;;11.20;69.10;;;;;;5048634;28;20419;-79
2021/04/04 03:12:44;;;;;;;16.73;2.88;;;11.20;69.40;;;;;;5046753;28;20419;-81
2021/04/04 03:15:14;;;;;;;12.77;2.70;;;11.20;69.50;;;;;;5051735;28;20423;-80
2021/04/04 03:17:42;;;;;;;18.53;2.73;;;11.20;69.60;;;;;;5062874;28;20451;-80
2021/04/04 03:20:10;;;;;;;12.98;2.42;;;11.20;69.60;;;;;;5067730;28;20430;-79
2021/04/04 03:22:40;;;;;;;16.58;2.50;;;11.20;69.60;;;;;;5060118;28;20448;-80
2021/04/04 03:25:10;;;;;;;15.77;2.63;;;11.20;69.70;;;;;;5045902;28;20424;-81
2021/04/04 03:27:37;;;;;;;12.52;2.65;;;11.10;69.70;;;;;;5067815;28;20518;-81
2021/04/04 03:30:06;;;;;;;12.73;2.50;;;11.10;70.10;;;;;;5061570;28;20434;-82
2021/04/04 03:32:33;;;;;;;17.60;2.92;;;11.20;70.30;;;;;;5048261;28;20481;-81
2021/04/04 03:35:00;;;;;;;14.43;2.27;;;11.20;70.30;;;;;;5065112;28;20561;-80
2021/04/04 03:37:28;;;;;;;16.15;2.60;;;11.20;70.30;;;;;;5046787;28;20424;-80
2021/04/04 03:39:54;;;;;;;12.20;2.20;;;11.20;70.50;;;;;;5045325;28;20498;-80
2021/04/04 03:42:23;;;;;;;10.75;2.22;;;11.20;70.90;;;;;;5065511;28;20837;-80
2021/04/04 03:44:50;;;;;;;12.88;2.60;;;11.30;71.40;;;;;;5063121;28;20435;-81
2021/04/04 03:47:17;;;;;;;11.57;2.42;;;11.30;71.60;;;;;;5045723;28;20462;-82
2021/04/04 03:49:44;;;;;;;9.98;2.10;;;11.30;71.80;;;;;;5062829;28;20763;-81
2021/04/04 03:52:12;;;;;;;7.78;1.52;;;11.30;72.30;;;;;;5067513;28;20822;-81
2021/04/04 03:54:40;;;;;;;9.65;1.83;;;11.20;73.00;;;;;;5047662;28;20446;-81
2021/04/04 03:57:07;;;;;;;8.17;1.80;;;11.10;73.80;;;;;;5065709;28;20485;-82
2021/04/04 03:59:38;;;;;;;8.73;1.33;;;11.20;74.20;;;;;;5045660;28;20425;-81
2021/04/04 04:02:05;;;;;;;6.13;1.40;;;11.10;74.20;;;;;;5062383;28;20820;-81
2021/04/04 04:04:32;;;;;;;7.78;1.70;;;11.20;74.30;;;;;;5062755;28;20481;-79
2021/04/04 04:06:59;;;;;;;8.05;1.80;;;11.20;74.10;;;;;;5063346;28;21214;-79
2021/04/04 04:09:27;;;;;;;10.32;2.00;;;11.20;73.80;;;;;;5066477;28;20433;-84
2021/04/04 04:11:54;;;;;;;6.78;1.48;;;11.20;73.90;;;;;;5047070;28;20498;-81
2021/04/04 04:14:23;;;;;;;6.77;1.50;;;11.10;73.90;;;;;;5059158;28;20774;-84
2021/04/04 04:16:51;;;;;;;8.30;1.60;;;11.10;73.60;;;;;;5049385;28;20435;-82
2021/04/04 04:19:18;;;;;;;8.65;1.50;;;11.10;73.50;;;;;;5067998;28;20419;-80
2021/04/04 04:21:45;;;;;;;6.60;1.50;;;11.10;73.40;;;;;;5063416;28;20432;-80
2021/04/04 04:24:13;;;;;;;7.00;1.80;;;11.20;73.20;;;;;;5041116;28;21004;-79
2021/04/04 04:26:43;;;;;;;8.02;2.10;;;11.10;72.90;;;;;;5062582;28;20419;-81
2021/04/04 04:29:11;;;;;;;9.32;2.00;;;11.10;72.60;;;;;;5059297;28;20475;-82
2021/04/04 04:31:41;;;;;;;9.23;2.10;;;11.20;72.60;;;;;;5047675;28;20466;-81
2021/04/04 04:34:09;;;;;;;12.85;2.20;;;11.10;72.50;;;;;;5043277;28;20405;-83
2021/04/04 04:36:40;;;;;;;10.23;2.45;;;11.10;72.50;;;;;;5042660;28;20433;-82
2021/04/04 04:39:08;;;;;;;10.98;2.13;;;11.10;72.40;;;;;;5039844;28;20983;-80
2021/04/04 04:41:40;;;;;;;10.32;2.38;;;11.10;72.40;;;;;;5046641;28;20523;-84
2021/04/04 04:44:07;;;;;;;7.68;2.30;;;11.10;72.60;;;;;;5036063;28;20419;-79
2021/04/04 04:46:35;;;;;;;9.10;2.40;;;11.10;72.50;;;;;;5042680;28;20425;-80
2021/04/04 04:49:02;;;;;;;12.77;2.80;;;11.10;72.30;;;;;;5044935;28;20429;-79
2021/04/04 04:51:30;;;;;;;15.32;3.85;;;11.10;72.20;;;;;;5045501;28;20508;-82
2021/04/04 04:53:57;;;;;;;14.18;4.05;;;11.10;71.70;;;;;;5044544;28;20417;-83
2021/04/04 04:56:25;;;;;;;11.98;3.92;;;11.00;71.70;;;;;;5040402;28;20425;-80
2021/04/04 04:58:52;;;;;;;12.68;4.28;;;11.00;71.30;;;;;;5042550;28;20453;-80
2021/04/04 05:01:24;;;;;;;14.95;4.50;;;11.00;71.40;;;;;;5036718;28;20450;-82
2021/04/04 05:03:51;;;;;;;17.02;4.53;;;11.00;71.30;;;;;;5042839;28;20425;-82
2021/04/04 05:06:18;;;;;;;14.90;4.93;;;11.00;71.20;;;;;;5042261;28;20499;-84
2021/04/04 05:08:47;;;;;;;16.20;5.07;;;11.00;71.40;;;;;;5041466;28;21267;-83
2021/04/04 05:11:16;;;;;;;13.73;5.00;;;11.00;71.10;;;;;;5042850;28;20429;-83
2021/04/04 05:13:43;;;;;;;14.83;5.40;;;11.00;71.30;;;;;;5042808;28;20437;-78
2021/04/04 05:16:10;;;;;;;13.20;5.22;;;11.00;71.30;;;;;;5040429;28;20434;-77
2021/04/04 05:18:37;;;;;;;16.38;6.00;;;11.00;70.90;;;;;;5047418;28;20429;-81
2021/04/04 05:21:04;;;;;;;17.50;5.60;;;11.00;70.70;;;;;;5043330;28;20471;-82
2021/04/04 05:23:34;;;;;;;15.48;5.60;;;11.00;70.70;;;;;;5045755;28;21005;-79
2021/04/04 05:26:02;;;;;;;15.00;5.43;;;11.00;70.70;;;;;;5044775;28;20975;-79
2021/04/04 05:28:28;;;;;;;15.63;5.38;;;11.00;70.80;;;;;;5042010;28;20425;-81
2021/04/04 05:31:01;;;;;;;15.45;5.35;;;11.00;70.50;;;;;;5040074;28;20427;-79
2021/04/04 05:33:28;;;;;;;16.55;4.70;;;11.00;70.70;;;;;;5039707;28;20901;-82
2021/04/04 05:35:54;;;;;;;16.45;4.93;;;11.00;71.10;;;;;;5045821;28;20425;-79
2021/04/04 05:38:20;;;;;;;16.58;5.22;;;11.00;71.20;;;;;;5062152;28;20424;-80
2021/04/04 05:40:48;;;;;;;16.98;5.38;;;11.00;71.10;;;;;;5059633;28;20431;-78
2021/04/04 05:43:24;;;;;;;16.35;5.47;;;11.00;70.40;;;;;;5061624;28;20449;-78
2021/04/04 05:45:56;;;;;;;14.30;5.53;;;11.00;70.20;;;;;;5061414;28;20895;-79
2021/04/04 05:48:35;;;;;;;16.75;5.20;;;11.00;70.10;;;;;;5041088;28;20492;-77
2021/04/04 05:51:27;;;;;;;15.27;4.80;;;11.00;69.90;;;;;;5059538;28;20468;-79
2021/04/04 05:54:06;;;;;;;15.30;4.40;;;11.00;70.00;;;;;;5034195;28;20429;-78
2021/04/04 05:56:40;;;;;;;13.02;4.60;;;11.00;69.90;;;;;;5053701;28;20443;-78
2021/04/04 05:59:12;;;;;;;12.90;4.40;;;10.90;69.80;;;;;;5046174;28;22264;-77
2021/04/04 06:02:15;;;;;;;15.30;4.75;;;10.90;70.00;;;;;;5064192;28;20439;-79
2021/04/04 06:04:59;;;;;;;13.25;4.50;;;10.90;70.00;;;;;;5060015;28;20421;-76
2021/04/04 06:08:00;;;;;;;16.70;4.90;;;10.90;70.30;;;;;;5055238;28;20433;-78
2021/04/04 06:10:40;;;;;;;16.25;4.80;;;10.90;70.30;;;;;;5059826;28;20532;-78
2021/04/04 06:13:18;;;;;;;15.73;6.90;;;10.90;70.50;;;;;;5054824;28;20444;-77
2021/04/04 06:16:06;;;;;;;13.60;5.28;;;10.90;70.40;;;;;;5046009;28;20425;-77
2021/04/04 06:18:46;;;;;;;15.88;5.25;;;10.90;70.20;;;;;;5043451;28;20419;-79
2021/04/04 06:21:21;;;;;;;13.73;4.90;;;10.90;70.10;;;;;;5057235;28;20423;-80
2021/04/04 06:23:56;;;;;;;12.02;4.85;;;10.90;70.20;;;;;;5058061;28;20802;-79
2021/04/04 06:26:39;;;;;;;13.40;4.78;;;10.90;70.30;;;;;;5058433;28;20519;-79
2021/04/04 06:29:15;;;;;;;16.33;4.95;;;10.90;70.10;;;;;;5036549;28;20540;-73
2021/04/04 06:31:58;;;;;;;14.70;5.00;;;10.90;70.10;;;;;;5052155;28;20431;-77
2021/04/04 06:34:33;;;;;;;12.80;4.40;;;10.90;70.20;;;;;;5041896;28;20826;-80
2021/04/04 06:37:15;;;;;;;14.85;4.88;;;10.90;70.40;;;;;;5061996;28;20900;-75
2021/04/04 06:40:03;;;;;;;14.20;4.90;;;10.90;70.10;;;;;;5060256;28;20446;-78
2021/04/04 06:42:47;;;;;;;14.10;4.95;;;10.90;69.80;;;;;;5053219;28;20431;-76
2021/04/04 06:45:23;;;;;;;14.50;5.10;;;10.90;70.00;;;;;;5057106;28;20438;-77
2021/04/04 06:48:05;;;;;;;16.80;5.73;;;10.90;69.90;;;;;;5059624;28;20427;-79
2021/04/04 06:50:37;;;;;;;18.65;6.68;;;10.90;69.90;;;;;;5060613;28;20445;-77
2021/04/04 06:53:18;;;;;;;16.77;6.20;;;11.00;70.20;;;;;;5065361;28;20790;-76
2021/04/04 06:55:54;;;;;;;17.02;6.30;;;11.00;69.80;;;;;;5061194;28;20429;-77
2021/04/04 06:58:33;;;;;;;13.85;5.57;;;11.00;69.90;;;;;;5046658;28;20419;-77
2021/04/04 07:01:10;;;;;;;15.77;5.95;;;11.00;70.10;;;;;;5047433;28;20512;-78
2021/04/04 07:03:45;;;;;;;13.38;5.70;;;11.00;70.10;;;;;;5042390;28;20425;-76
2021/04/04 07:06:28;;;;;;;13.07;5.18;;;11.00;70.40;;;;;;5058364;28;20470;-78
2021/04/04 07:09:06;;;;;;;14.85;6.18;;;11.00;70.20;;;;;;5060380;28;20423;-77
2021/04/04 07:11:41;;;;;;;11.77;5.63;;;11.00;70.40;;;;;;5048553;28;20870;-78
2021/04/04 07:14:49;;;;;;;13.93;5.72;;;11.00;70.60;;;;;;5049563;28;20945;-79
2021/04/04 07:17:45;;;;;;;14.95;6.10;;;11.00;70.70;;;;;;5048658;28;20427;-78
2021/04/04 07:20:31;;;;;;;14.87;6.23;;;11.00;70.80;;;;;;5023392;28;20485;-76
2021/04/04 07:23:24;;;;;;;17.20;5.93;;;11.00;71.20;;;;;;5060807;28;20518;-78
2021/04/04 07:25:57;;;;;;;14.23;5.85;;;11.00;71.20;;;;;;5036487;28;20803;-76
2021/04/04 07:28:38;;;;;;;17.05;6.00;;;11.00;71.30;;;;;;5060416;28;20429;-77
2021/04/04 07:31:09;;;;;;;12.32;5.60;;;10.90;71.30;;;;;;5043473;28;20435;-77
2021/04/04 07:33:43;;;;;;;16.00;5.80;;;10.90;71.20;;;;;;5059846;28;20432;-77
2021/04/04 07:36:22;;;;;;;16.27;6.22;;;10.90;71.50;;;;;;5062259;28;20440;-76
2021/04/04 07:38:57;;;;;;;14.05;5.72;;;10.90;71.50;;;;;;5045884;28;20848;-77
2021/04/04 07:41:32;;;;;;;16.05;6.30;;;11.00;71.70;;;;;;5044486;28;20425;-77
2021/04/04 07:44:05;;;;;;;15.68;6.25;;;11.00;71.70;;;;;;5061811;28;20424;-76
2021/04/04 07:46:38;;;;;;;14.20;5.77;;;10.90;71.80;;;;;;5060495;28;20522;-76
2021/04/04 07:49:20;;;;;;;16.65;5.60;;;10.90;71.70;;;;;;5061448;28;20451;-77
2021/04/04 07:51:50;;;;;;;15.75;6.07;;;10.90;71.80;;;;;;5063624;28;20924;-78
2021/04/04 07:54:27;;;;;;;13.30;5.83;;;11.00;72.50;;;;;;5060622;28;20431;-77
2021/04/04 07:56:57;;;;;;;13.50;5.80;;;10.90;71.60;;;;;;5035825;28;20441;-78
2021/04/04 07:59:29;;;;;;;15.30;6.18;;;11.00;71.70;;;;;;5055587;28;20428;-78
2021/04/04 08:02:03;;;;;;;18.45;7.82;;;11.00;71.70;;;;;;5046781;28;20436;-76
2021/04/04 08:04:38;;;;;;;15.68;7.90;;;11.00;71.70;;;;;;5063761;28;20455;-76
2021/04/04 08:07:14;;;;;;;15.65;6.45;;;11.10;71.50;;;;;;5058853;28;20444;-77
2021/04/04 08:09:48;;;;;;;15.38;7.00;;;11.10;71.60;;;;;;5061150;28;20424;-77
2021/04/04 08:12:25;;;;;;;13.18;5.95;;;11.10;71.40;;;;;;5062219;28;20434;-78
2021/04/04 08:14:58;;;;;;;10.90;5.95;;;11.10;71.30;;;;;;5057937;28;20429;-76
2021/04/04 08:17:25;;;;;;;17.60;6.50;;;11.10;71.00;;;;;;5062138;28;20431;-79
2021/04/04 08:19:58;;;;;;;15.60;5.97;;;11.10;71.00;;;;;;5060638;28;20431;-76
2021/04/04 08:22:30;;;;;;;15.20;7.13;;;11.10;70.80;;;;;;5059418;28;20440;-78
2021/04/04 08:25:01;;;;;;;14.13;5.25;;;11.20;70.30;;;;;;5058849;28;20905;-77
2021/04/04 08:27:32;;;;;;;12.43;5.28;;;11.20;70.00;;;;;;5040579;28;20520;-76
2021/04/04 08:30:02;;;;;;;14.32;5.28;;;11.20;70.10;;;;;;5061308;28;20807;-78
2021/04/04 08:32:37;;;;;;;10.63;5.07;;;11.20;69.90;;;;;;5056977;28;20429;-76
2021/04/04 08:35:08;;;;;;;11.88;4.60;;;11.20;69.70;;;;;;5055521;28;20448;-75
2021/04/04 08:37:41;;;;;;;12.37;5.00;;;11.30;69.20;;;;;;5056978;28;20524;-75
2021/04/04 08:40:12;;;;;;;8.02;4.60;;;11.30;69.00;;;;;;5060333;28;20436;-80
2021/04/04 08:42:39;;;;;;;12.30;4.60;;;11.30;69.00;;;;;;5061923;28;20431;-76
2021/04/04 08:45:09;;;;;;;12.55;5.18;;;11.30;69.30;;;;;;5041886;28;20781;-76
2021/04/04 08:47:37;;;;;;;16.13;5.03;;;11.30;69.60;;;;;;5059269;28;20419;-76
2021/04/04 08:50:07;;;;;;;12.38;5.07;;;11.30;69.20;;;;;;5041886;28;20564;-76
2021/04/04 08:52:38;;;;;;;13.32;5.00;;;11.30;69.70;;;;;;5056695;28;20438;-75
2021/04/04 08:55:05;;;;;;;14.55;4.93;;;11.40;69.60;;;;;;5059092;28;20419;-76
2021/04/04 08:57:36;;;;;;;11.90;4.80;;;11.40;69.80;;;;;;5057756;28;20427;-75
2021/04/04 09:00:07;;;;;;;14.02;4.55;;;11.40;69.60;;;;;;5055682;28;20432;-75
2021/04/04 09:02:38;;;;;;;14.75;5.22;;;11.50;69.50;;;;;;5054439;28;20429;-75
2021/04/04 09:05:07;;;;;;;12.85;5.07;;;11.50;69.00;;;;;;5060159;28;20425;-76
2021/04/04 09:07:40;;;;;;;12.05;4.85;;;11.50;69.20;;;;;;5043007;28;20457;-75
2021/04/04 09:10:10;;;;;;;15.57;4.65;;;11.50;69.00;;;;;;5056555;28;20434;-75
2021/04/04 09:12:39;;;;;;;13.55;5.15;;;11.50;68.90;;;;;;5037547;28;20417;-76
2021/04/04 09:15:07;;;;;;;12.15;4.90;;;11.40;69.30;;;;;;5060779;28;20431;-76
2021/04/04 09:17:34;;;;;;;14.82;4.93;;;11.40;69.60;;;;;;5058651;28;20495;-76
2021/04/04 09:20:05;;;;;;;13.77;4.70;;;11.40;70.00;;;;;;5061058;28;20421;-77
2021/04/04 09:22:32;;;;;;;9.18;4.43;;;11.40;69.60;;;;;;5058981;28;20425;-76
2021/04/04 09:25:05;;;;;;;11.90;4.70;;;11.40;69.60;;;;;;5066196;28;20432;-76
2021/04/04 09:27:35;;;;;;;11.77;4.72;;;11.40;69.40;;;;;;5058976;28;20910;-76
2021/04/04 09:30:04;;;;;;;14.10;4.95;;;11.40;69.60;;;;;;5063584;28;20455;-77
2021/04/04 09:32:35;;;;;;;14.05;5.20;;;11.40;69.70;;;;;;5043368;28;20419;-78
2021/04/04 09:35:04;;;;;;;11.02;4.70;;;11.40;70.20;;;;;;5060935;28;20443;-77
2021/04/04 09:37:31;;;;;;;11.43;4.70;;;11.40;70.00;;;;;;5058760;28;20916;-77
2021/04/04 09:39:59;;;;;;;11.75;4.95;;;11.50;70.00;;;;;;5042100;28;20433;-77
2021/04/04 09:42:30;;;;;;;9.65;4.30;;;11.50;69.60;;;;;;5062024;28;20499;-76
2021/04/04 09:45:12;;;;;;;11.40;4.53;;;11.60;69.40;;;;;;5056859;28;20851;-77
2021/04/04 09:47:38;;;;;;;13.60;5.03;;;11.60;69.00;;;;;;5048702;28;20423;-78
2021/04/04 09:50:17;;;;;;;12.15;4.90;;;11.60;69.40;;;;;;5060788;28;20420;-75
2021/04/04 09:52:43;;;;;;;15.30;5.30;;;11.60;69.00;;;;;;5062030;28;20777;-76
2021/04/04 09:55:14;;;;;;;12.40;4.87;;;11.60;68.80;;;;;;5060097;28;20439;-76
2021/04/04 09:57:42;;;;;;;9.60;4.40;;;11.60;68.90;;;;;;5058781;28;20824;-75
2021/04/04 10:00:21;;;;;;;9.88;4.53;;;11.60;70.10;;;;;;5054770;28;20783;-76
2021/04/04 10:02:50;;;;;;;11.88;4.60;;;11.60;69.40;;;;;;5055370;28;20429;-75
2021/04/04 10:05:30;;;;;;;11.45;4.95;;;11.70;69.60;;;;;;5059367;28;20532;-76
2021/04/04 10:08:14;;;;;;;10.73;4.50;;;11.70;69.50;;;;;;5062430;28;20451;-76
2021/04/04 10:10:42;;;;;;;11.18;4.70;;;11.70;69.20;;;;;;5056455;28;20528;-75
2021/04/04 10:13:09;;;;;;;12.27;4.60;;;11.70;68.60;;;;;;5054054;28;23249;-77
2021/04/04 10:15:44;;;;;;;12.47;4.80;;;11.80;68.10;;;;;;5060408;28;20436;-79
2021/04/04 10:18:11;;;;;;;14.80;6.53;;;11.80;67.20;;;;;;5040853;28;20442;-79
2021/04/04 10:20:40;;;;;;;11.68;5.00;;;11.80;67.20;;;;;;5057228;28;20545;-76
2021/04/04 10:23:07;;;;;;;9.65;4.43;;;11.80;66.30;;;;;;5066318;28;20425;-77
2021/04/04 10:25:34;;;;;;;9.45;4.68;;;11.80;66.10;;;;;;5065872;28;20423;-76
2021/04/04 10:28:04;;;;;;;11.20;4.60;;;11.80;66.50;;;;;;5067810;28;20776;-76
2021/04/04 10:30:33;;;;;;;11.95;4.70;;;11.90;66.50;;;;;;5066377;28;20889;-77
2021/04/04 10:33:21;;;;;;;11.68;4.57;;;11.90;67.10;;;;;;5066638;28;20427;-76
2021/04/04 10:35:47;;;;;;;11.13;4.67;;;11.90;66.90;;;;;;5065684;28;20476;-76
2021/04/04 10:38:16;;;;;;;11.07;4.43;;;12.00;67.20;;;;;;5058847;28;20479;-77
2021/04/04 10:40:49;;;;;;;9.57;4.40;;;12.00;67.20;;;;;;5046507;28;20429;-77
2021/04/04 10:43:18;;;;;;;11.37;4.77;;;12.00;66.80;;;;;;5063622;28;20417;-76
2021/04/04 10:45:58;;;;;;;12.30;4.72;;;11.90;66.90;;;;;;5061636;28;20429;-76
2021/04/04 10:48:25;;;;;;;11.88;4.50;;;11.90;67.10;;;;;;5063852;28;20419;-77
2021/04/04 10:50:52;;;;;;;10.87;4.77;;;11.90;67.30;;;;;;5062847;28;20426;-77
2021/04/04 10:53:20;;;;;;;11.25;4.65;;;11.80;67.30;;;;;;5061570;28;20884;-78
2021/04/04 10:55:47;;;;;;;10.87;5.00;;;11.80;68.10;;;;;;5067435;28;20530;-77
2021/04/04 10:58:14;;;;;;;13.82;5.07;;;11.80;68.60;;;;;;5064405;28;20418;-77
2021/04/04 11:00:42;;;;;;;10.73;4.73;;;11.80;68.40;;;;;;5064384;28;20896;-76
2021/04/04 11:03:09;;;;;;;14.48;4.88;;;11.80;68.10;;;;;;5041652;28;20472;-77
2021/04/04 11:05:37;;;;;;;12.13;4.72;;;11.80;68.00;;;;;;5066180;28;20428;-77
2021/04/04 11:08:04;;;;;;;11.80;4.72;;;11.80;68.40;;;;;;5061489;28;20423;-76
2021/04/04 11:10:30;;;;;;;10.23;4.60;;;11.80;67.90;;;;;;5059905;28;20787;-76
2021/04/04 11:12:59;;;;;;;10.43;4.35;;;11.80;67.90;;;;;;5068887;28;20438;-76
2021/04/04 11:15:29;;;;;;;9.65;4.70;;;11.80;68.30;;;;;;5065877;28;20796;-77
2021/04/04 11:17:56;;;;;;;11.68;4.82;;;11.90;68.40;;;;;;5063561;28;20431;-78
2021/04/04 11:20:24;;;;;;;12.63;4.82;;;12.00;68.50;;;;;;5062783;28;20436;-77
2021/04/04 11:22:51;;;;;;;12.10;4.85;;;12.00;68.10;;;;;;5059680;28;20431;-76
2021/04/04 11:25:18;;;;;;;11.97;4.90;;;12.10;68.00;;;;;;5061665;28;20510;-77
2021/04/04 11:27:46;;;;;;;10.35;5.15;;;12.20;68.20;;;;;;5063539;28;20903;-78
2021/04/04 11:30:15;;;;;;;10.95;4.65;;;12.20;68.40;;;;;;5039927;28;20461;-78
2021/04/04 11:32:43;;;;;;;13.35;5.13;;;12.20;68.70;;;;;;5039904;28;20429;-76
2021/04/04 11:35:10;;;;;;;11.88;4.72;;;12.10;68.60;;;;;;5045847;28;20757;-77
2021/04/04 11:37:43;;;;;;;11.43;4.90;;;12.10;68.90;;;;;;5038216;28;20794;-76
2021/04/04 11:40:18;;;;;;;11.65;4.63;;;12.10;69.00;;;;;;5055539;28;20514;-77
2021/04/04 11:42:47;;;;;;;11.27;4.85;;;12.00;69.10;;;;;;5060853;28;20897;-77
2021/04/04 11:45:32;;;;;;;11.23;4.53;;;12.00;69.30;;;;;;5064005;28;20436;-76
2021/04/04 11:48:28;;;;;;;15.10;5.40;;;12.00;69.10;;;;;;5056909;28;20427;-77
2021/04/04 11:50:55;;;;;;;11.55;4.75;;;11.90;69.10;;;;;;5063897;28;20778;-77
2021/04/04 11:53:41;;;;;;;11.05;4.50;;;12.00;69.20;;;;;;5062370;28;20498;-76
2021/04/04 11:56:08;;;;;;;13.77;5.07;;;11.90;68.90;;;;;;5058127;28;21018;-75
2021/04/04 11:58:35;;;;;;;12.65;4.78;;;12.00;69.80;;;;;;5056223;28;20429;-78
2021/04/04 12:01:01;;;;;;;12.70;4.60;;;11.90;70.00;;;;;;5062020;28;20479;-76
2021/04/04 12:03:28;;;;;;;10.50;4.60;;;12.00;69.80;;;;;;5062648;28;20423;-77
2021/04/04 12:05:54;;;;;;;13.55;5.07;;;12.00;69.80;;;;;;5054626;28;20433;-75
2021/04/04 12:08:28;;;;;;;11.10;5.13;;;12.00;70.00;;;;;;5065469;28;20427;-76
2021/04/04 12:10:56;;;;;;;12.00;4.60;;;12.10;69.90;;;;;;5045812;28;20927;-76
2021/04/04 12:13:22;;;;;;;13.55;5.10;;;12.10;69.40;;;;;;5057797;28;20906;-76
2021/04/04 12:15:49;;;;;;;12.27;5.27;;;12.10;69.30;;;;;;5059217;28;20460;-76
2021/04/04 12:18:15;;;;;;;11.90;4.95;;;12.10;69.20;;;;;;5060665;28;20981;-76
2021/04/04 12:20:42;;;;;;;10.23;4.53;;;12.10;69.20;;;;;;5059426;28;20417;-75
2021/04/04 12:23:10;;;;;;;10.27;4.68;;;12.20;69.00;;;;;;5046406;28;20609;-75
2021/04/04 12:25:37;;;;;;;11.20;4.77;;;12.20;68.70;;;;;;5060218;28;20436;-75
2021/04/04 12:28:04;;;;;;;10.68;4.70;;;12.30;68.90;;;;;;5064937;28;20518;-77
2021/04/04 12:30:33;;;;;;;12.35;4.80;;;12.30;68.10;;;;;;5045935;28;20430;-76
2021/04/04 12:33:18;;;;;;;12.25;4.60;;;12.30;67.50;;;;;;5047139;28;20514;-76
2021/04/04 12:35:46;;;;;;;14.93;5.00;;;12.30;67.60;;;;;;5059826;28;21121;-76
2021/04/04 12:38:21;;;;;;;11.35;4.57;;;12.30;67.80;;;;;;5057332;28;20419;-76
2021/04/04 12:40:48;;;;;;;11.85;4.75;;;12.30;68.00;;;;;;5045546;28;20438;-76
2021/04/04 12:43:15;;;;;;;14.70;5.40;;;12.30;67.50;;;;;;5056663;28;21382;-76
2021/04/04 12:45:41;;;;;;;12.68;4.78;;;12.30;67.40;;;;;;5059108;28;20427;-77
2021/04/04 12:48:12;;;;;;;10.18;4.75;;;12.30;67.20;;;;;;5061076;28;21198;-75
2021/04/04 12:50:39;;;;;;;11.32;5.22;;;12.30;67.90;;;;;;5057473;28;20489;-77
2021/04/04 12:53:05;;;;;;;12.57;4.70;;;12.20;68.10;;;;;;5057511;28;20897;-76
2021/04/04 12:55:33;;;;;;;12.48;5.10;;;12.10;68.40;;;;;;5057017;28;20437;-78
2021/04/04 12:58:02;;;;;;;12.50;5.15;;;12.10;68.90;;;;;;5047822;28;20729;-76